Corona, New Mexico
Current Conditions -  °F | °C
As of 1:53 AM on Wednesday 26 Nov 2014 (Local Time) from KCQC Reporting Station
Clear Clear  
Wind Chill: 17°   Ceiling: Unl
Heat Index: 32°   Visibility: 10mi
Dew Point: 10°   Wind: 31mph
Humidity: 40%   Direction: 290°WNW
Pressure: 30.17"   Gusts: 38mph
Location:  34.25°N, 105.6°W
Report Text: KCQC 260853Z AUTO 29027G33KT 10SM CLR 00/M12 A3017 RMK AO2 PK WND 29033/0853 SLP209 T00001122 55010
Loading
Personal Weather Stations






























Interactive Weather Map New forecast layout! Learn more

10-Day Weather Forecast

Advertisements
Track Severe Weather on mobile